sensor_id;sensor_type;location;lat;lon;timestamp;P1;durP1;ratioP1;P2;durP2;ratioP2
9563;SDS011;4820;50.870;4.702;2023-07-28T00:01:34;3.65;;;2.50;;
9563;SDS011;4820;50.870;4.702;2023-07-28T00:03:59;3.00;;;2.70;;
9563;SDS011;4820;50.870;4.702;2023-07-28T00:06:25;3.55;;;2.72;;
9563;SDS011;4820;50.870;4.702;2023-07-28T00:08:51;3.78;;;2.90;;
9563;SDS011;4820;50.870;4.702;2023-07-28T00:11:16;3.20;;;2.53;;
9563;SDS011;4820;50.870;4.702;2023-07-28T00:13:42;3.78;;;2.50;;
9563;SDS011;4820;50.870;4.702;2023-07-28T00:16:08;3.10;;;2.83;;
9563;SDS011;4820;50.870;4.702;2023-07-28T00:18:34;3.47;;;3.03;;
9563;SDS011;4820;50.870;4.702;2023-07-28T00:21:01;3.22;;;2.92;;
9563;SDS011;4820;50.870;4.702;2023-07-28T00:23:27;4.72;;;3.42;;
9563;SDS011;4820;50.870;4.702;2023-07-28T00:25:53;4.55;;;3.05;;
9563;SDS011;4820;50.870;4.702;2023-07-28T00:28:19;5.00;;;3.47;;
9563;SDS011;4820;50.870;4.702;2023-07-28T00:30:48;4.35;;;3.53;;
9563;SDS011;4820;50.870;4.702;2023-07-28T00:33:15;4.82;;;3.65;;
9563;SDS011;4820;50.870;4.702;2023-07-28T00:35:42;3.22;;;2.92;;
9563;SDS011;4820;50.870;4.702;2023-07-28T00:38:08;4.50;;;3.50;;
9563;SDS011;4820;50.870;4.702;2023-07-28T00:40:35;3.50;;;3.20;;
9563;SDS011;4820;50.870;4.702;2023-07-28T00:43:01;3.80;;;3.33;;
9563;SDS011;4820;50.870;4.702;2023-07-28T00:45:28;3.88;;;3.30;;
9563;SDS011;4820;50.870;4.702;2023-07-28T00:47:56;3.85;;;3.22;;
9563;SDS011;4820;50.870;4.702;2023-07-28T00:50:24;4.70;;;3.63;;
9563;SDS011;4820;50.870;4.702;2023-07-28T00:52:51;3.70;;;3.33;;
9563;SDS011;4820;50.870;4.702;2023-07-28T00:55:16;4.38;;;3.22;;
9563;SDS011;4820;50.870;4.702;2023-07-28T00:57:42;4.18;;;3.60;;
9563;SDS011;4820;50.870;4.702;2023-07-28T01:00:09;3.63;;;3.10;;
9563;SDS011;4820;50.870;4.702;2023-07-28T01:02:35;3.53;;;3.20;;
9563;SDS011;4820;50.870;4.702;2023-07-28T01:05:03;5.28;;;3.40;;
9563;SDS011;4820;50.870;4.702;2023-07-28T01:12:57;4.68;;;3.05;;
9563;SDS011;4820;50.870;4.702;2023-07-28T01:15:24;3.42;;;3.10;;
9563;SDS011;4820;50.870;4.702;2023-07-28T01:17:50;3.40;;;3.10;;
9563;SDS011;4820;50.870;4.702;2023-07-28T01:20:16;4.55;;;3.33;;
9563;SDS011;4820;50.870;4.702;2023-07-28T01:25:36;9.07;;;3.10;;
9563;SDS011;4820;50.870;4.702;2023-07-28T01:28:05;2.95;;;2.65;;
9563;SDS011;4820;50.870;4.702;2023-07-28T01:30:32;4.32;;;3.20;;
9563;SDS011;4820;50.870;4.702;2023-07-28T01:32:58;3.72;;;2.90;;
9563;SDS011;4820;50.870;4.702;2023-07-28T01:35:25;3.75;;;2.80;;
9563;SDS011;4820;50.870;4.702;2023-07-28T01:37:51;3.45;;;3.10;;
9563;SDS011;4820;50.870;4.702;2023-07-28T01:40:17;4.88;;;3.45;;
9563;SDS011;4820;50.870;4.702;2023-07-28T01:42:43;5.20;;;3.33;;
9563;SDS011;4820;50.870;4.702;2023-07-28T01:45:09;3.88;;;3.47;;
9563;SDS011;4820;50.870;4.702;2023-07-28T01:47:34;4.93;;;3.75;;
9563;SDS011;4820;50.870;4.702;2023-07-28T01:50:01;4.60;;;4.05;;
9563;SDS011;4820;50.870;4.702;2023-07-28T01:52:28;5.13;;;3.70;;
9563;SDS011;4820;50.870;4.702;2023-07-28T01:54:53;5.28;;;3.80;;
9563;SDS011;4820;50.870;4.702;2023-07-28T01:57:19;4.93;;;3.75;;
9563;SDS011;4820;50.870;4.702;2023-07-28T01:59:45;4.45;;;3.50;;
9563;SDS011;4820;50.870;4.702;2023-07-28T02:02:10;6.10;;;4.20;;
9563;SDS011;4820;50.870;4.702;2023-07-28T02:04:36;4.20;;;3.78;;
9563;SDS011;4820;50.870;4.702;2023-07-28T02:07:02;6.03;;;4.20;;
9563;SDS011;4820;50.870;4.702;2023-07-28T02:09:27;5.18;;;4.63;;
9563;SDS011;4820;50.870;4.702;2023-07-28T02:11:53;6.82;;;4.18;;
9563;SDS011;4820;50.870;4.702;2023-07-28T02:14:19;4.93;;;3.90;;
9563;SDS011;4820;50.870;4.702;2023-07-28T02:16:44;6.28;;;4.25;;
9563;SDS011;4820;50.870;4.702;2023-07-28T02:19:10;5.50;;;4.00;;
9563;SDS011;4820;50.870;4.702;2023-07-28T02:21:35;5.15;;;4.05;;
9563;SDS011;4820;50.870;4.702;2023-07-28T02:24:01;6.18;;;4.07;;
9563;SDS011;4820;50.870;4.702;2023-07-28T02:26:27;5.00;;;4.15;;
9563;SDS011;4820;50.870;4.702;2023-07-28T02:28:53;5.00;;;3.90;;
9563;SDS011;4820;50.870;4.702;2023-07-28T02:31:20;4.85;;;4.35;;
9563;SDS011;4820;50.870;4.702;2023-07-28T02:33:46;5.15;;;4.20;;
9563;SDS011;4820;50.870;4.702;2023-07-28T02:36:11;5.40;;;4.53;;
9563;SDS011;4820;50.870;4.702;2023-07-28T02:38:37;7.03;;;4.40;;
9563;SDS011;4820;50.870;4.702;2023-07-28T02:41:02;4.93;;;4.43;;
9563;SDS011;4820;50.870;4.702;2023-07-28T02:43:29;5.50;;;4.85;;
9563;SDS011;4820;50.870;4.702;2023-07-28T02:45:55;5.55;;;4.97;;
9563;SDS011;4820;50.870;4.702;2023-07-28T02:48:22;6.15;;;5.05;;
9563;SDS011;4820;50.870;4.702;2023-07-28T02:50:49;5.00;;;4.50;;
9563;SDS011;4820;50.870;4.702;2023-07-28T02:53:17;6.47;;;4.72;;
9563;SDS011;4820;50.870;4.702;2023-07-28T02:55:43;6.57;;;5.28;;
9563;SDS011;4820;50.870;4.702;2023-07-28T02:58:09;10.05;;;5.15;;
9563;SDS011;4820;50.870;4.702;2023-07-28T03:00:42;5.50;;;4.90;;
9563;SDS011;4820;50.870;4.702;2023-07-28T03:03:09;5.93;;;4.70;;
9563;SDS011;4820;50.870;4.702;2023-07-28T03:05:36;6.38;;;5.10;;
9563;SDS011;4820;50.870;4.702;2023-07-28T03:08:02;7.03;;;5.05;;
9563;SDS011;4820;50.870;4.702;2023-07-28T03:10:28;9.05;;;5.15;;
9563;SDS011;4820;50.870;4.702;2023-07-28T03:12:54;6.88;;;5.00;;
9563;SDS011;4820;50.870;4.702;2023-07-28T03:15:20;6.55;;;4.90;;
9563;SDS011;4820;50.870;4.702;2023-07-28T03:17:47;5.85;;;4.53;;
9563;SDS011;4820;50.870;4.702;2023-07-28T03:20:13;8.00;;;5.22;;
9563;SDS011;4820;50.870;4.702;2023-07-28T03:22:38;6.63;;;4.80;;
9563;SDS011;4820;50.870;4.702;2023-07-28T03:25:04;6.82;;;5.28;;
9563;SDS011;4820;50.870;4.702;2023-07-28T03:27:30;5.47;;;4.55;;
9563;SDS011;4820;50.870;4.702;2023-07-28T03:29:56;5.45;;;4.80;;
9563;SDS011;4820;50.870;4.702;2023-07-28T03:32:21;6.15;;;4.65;;
9563;SDS011;4820;50.870;4.702;2023-07-28T03:34:48;6.15;;;4.60;;
9563;SDS011;4820;50.870;4.702;2023-07-28T03:37:14;6.88;;;4.68;;
9563;SDS011;4820;50.870;4.702;2023-07-28T03:39:39;4.63;;;4.22;;
9563;SDS011;4820;50.870;4.702;2023-07-28T03:42:05;5.70;;;4.28;;
9563;SDS011;4820;50.870;4.702;2023-07-28T03:44:32;5.00;;;4.60;;
9563;SDS011;4820;50.870;4.702;2023-07-28T03:46:58;7.65;;;4.45;;
9563;SDS011;4820;50.870;4.702;2023-07-28T03:49:24;4.53;;;4.13;;
9563;SDS011;4820;50.870;4.702;2023-07-28T03:51:51;7.45;;;4.07;;
9563;SDS011;4820;50.870;4.702;2023-07-28T03:54:17;6.03;;;3.97;;
9563;SDS011;4820;50.870;4.702;2023-07-28T03:56:42;6.80;;;4.43;;
9563;SDS011;4820;50.870;4.702;2023-07-28T03:59:08;5.03;;;3.90;;
9563;SDS011;4820;50.870;4.702;2023-07-28T04:01:34;6.10;;;4.00;;
9563;SDS011;4820;50.870;4.702;2023-07-28T04:03:59;6.45;;;4.07;;
9563;SDS011;4820;50.870;4.702;2023-07-28T04:06:45;4.40;;;4.00;;
9563;SDS011;4820;50.870;4.702;2023-07-28T04:09:12;4.20;;;3.80;;
9563;SDS011;4820;50.870;4.702;2023-07-28T04:11:39;5.68;;;3.88;;
9563;SDS011;4820;50.870;4.702;2023-07-28T04:14:05;5.32;;;4.32;;
9563;SDS011;4820;50.870;4.702;2023-07-28T04:16:31;4.55;;;3.80;;
9563;SDS011;4820;50.870;4.702;2023-07-28T04:18:57;5.25;;;3.65;;
9563;SDS011;4820;50.870;4.702;2023-07-28T04:21:23;4.47;;;3.20;;
9563;SDS011;4820;50.870;4.702;2023-07-28T04:23:49;6.93;;;3.85;;
9563;SDS011;4820;50.870;4.702;2023-07-28T04:26:16;6.70;;;3.80;;
9563;SDS011;4820;50.870;4.702;2023-07-28T04:28:44;5.85;;;3.30;;
9563;SDS011;4820;50.870;4.702;2023-07-28T04:31:11;4.60;;;3.10;;
9563;SDS011;4820;50.870;4.702;2023-07-28T04:33:38;6.75;;;3.63;;
9563;SDS011;4820;50.870;4.702;2023-07-28T04:36:07;4.85;;;3.30;;
9563;SDS011;4820;50.870;4.702;2023-07-28T04:38:33;4.43;;;3.30;;
9563;SDS011;4820;50.870;4.702;2023-07-28T04:40:58;5.15;;;3.40;;
9563;SDS011;4820;50.870;4.702;2023-07-28T04:43:24;3.88;;;3.40;;
9563;SDS011;4820;50.870;4.702;2023-07-28T04:45:50;3.40;;;3.10;;
9563;SDS011;4820;50.870;4.702;2023-07-28T04:48:15;4.75;;;3.63;;
9563;SDS011;4820;50.870;4.702;2023-07-28T04:50:42;4.82;;;3.35;;
9563;SDS011;4820;50.870;4.702;2023-07-28T04:53:09;6.18;;;3.55;;
9563;SDS011;4820;50.870;4.702;2023-07-28T04:55:34;5.47;;;3.40;;
9563;SDS011;4820;50.870;4.702;2023-07-28T04:58:00;3.20;;;2.95;;
9563;SDS011;4820;50.870;4.702;2023-07-28T05:00:26;3.17;;;2.80;;
9563;SDS011;4820;50.870;4.702;2023-07-28T05:02:52;7.00;;;3.20;;
9563;SDS011;4820;50.870;4.702;2023-07-28T05:05:18;4.82;;;3.13;;
9563;SDS011;4820;50.870;4.702;2023-07-28T05:07:44;5.03;;;3.30;;
9563;SDS011;4820;50.870;4.702;2023-07-28T05:10:09;3.10;;;2.72;;
9563;SDS011;4820;50.870;4.702;2023-07-28T05:12:35;3.33;;;3.05;;
9563;SDS011;4820;50.870;4.702;2023-07-28T05:15:01;3.20;;;2.90;;
9563;SDS011;4820;50.870;4.702;2023-07-28T05:17:26;4.57;;;3.40;;
9563;SDS011;4820;50.870;4.702;2023-07-28T05:19:52;5.68;;;3.42;;
9563;SDS011;4820;50.870;4.702;2023-07-28T05:22:18;4.38;;;3.50;;
9563;SDS011;4820;50.870;4.702;2023-07-28T05:24:45;4.05;;;3.40;;
9563;SDS011;4820;50.870;4.702;2023-07-28T05:27:11;5.80;;;3.47;;
9563;SDS011;4820;50.870;4.702;2023-07-28T05:29:37;5.50;;;3.50;;
9563;SDS011;4820;50.870;4.702;2023-07-28T05:32:03;4.32;;;3.85;;
9563;SDS011;4820;50.870;4.702;2023-07-28T05:34:29;6.35;;;4.00;;
9563;SDS011;4820;50.870;4.702;2023-07-28T05:36:55;5.47;;;4.53;;
9563;SDS011;4820;50.870;4.702;2023-07-28T05:39:21;4.90;;;4.40;;
9563;SDS011;4820;50.870;4.702;2023-07-28T05:41:46;4.53;;;4.07;;
9563;SDS011;4820;50.870;4.702;2023-07-28T05:44:12;4.82;;;4.18;;
9563;SDS011;4820;50.870;4.702;2023-07-28T05:46:38;5.60;;;3.85;;
9563;SDS011;4820;50.870;4.702;2023-07-28T05:49:04;4.78;;;3.83;;
9563;SDS011;4820;50.870;4.702;2023-07-28T05:51:30;4.68;;;4.05;;
9563;SDS011;4820;50.870;4.702;2023-07-28T05:53:55;4.03;;;3.58;;
9563;SDS011;4820;50.870;4.702;2023-07-28T05:56:21;5.60;;;3.63;;
9563;SDS011;4820;50.870;4.702;2023-07-28T05:58:47;3.42;;;3.13;;
9563;SDS011;4820;50.870;4.702;2023-07-28T06:01:13;3.15;;;2.85;;
9563;SDS011;4820;50.870;4.702;2023-07-28T06:03:39;4.28;;;2.70;;
9563;SDS011;4820;50.870;4.702;2023-07-28T06:06:04;3.58;;;2.67;;
9563;SDS011;4820;50.870;4.702;2023-07-28T06:08:30;2.50;;;2.30;;
9563;SDS011;4820;50.870;4.702;2023-07-28T06:10:56;3.28;;;2.20;;
9563;SDS011;4820;50.870;4.702;2023-07-28T06:13:21;5.38;;;2.50;;
9563;SDS011;4820;50.870;4.702;2023-07-28T06:15:47;1.90;;;1.70;;
9563;SDS011;4820;50.870;4.702;2023-07-28T06:18:14;3.15;;;2.10;;
9563;SDS011;4820;50.870;4.702;2023-07-28T06:20:43;3.13;;;1.70;;
9563;SDS011;4820;50.870;4.702;2023-07-28T06:23:09;2.45;;;1.52;;
9563;SDS011;4820;50.870;4.702;2023-07-28T06:25:35;2.53;;;1.50;;
9563;SDS011;4820;50.870;4.702;2023-07-28T06:28:04;1.80;;;1.60;;
9563;SDS011;4820;50.870;4.702;2023-07-28T06:30:29;3.13;;;1.60;;
9563;SDS011;4820;50.870;4.702;2023-07-28T06:32:56;1.77;;;1.52;;
9563;SDS011;4820;50.870;4.702;2023-07-28T06:35:22;2.05;;;1.50;;
9563;SDS011;4820;50.870;4.702;2023-07-28T06:37:47;2.60;;;1.60;;
9563;SDS011;4820;50.870;4.702;2023-07-28T06:40:13;2.47;;;1.45;;
9563;SDS011;4820;50.870;4.702;2023-07-28T06:42:39;1.83;;;1.60;;
9563;SDS011;4820;50.870;4.702;2023-07-28T06:45:05;2.22;;;1.55;;
9563;SDS011;4820;50.870;4.702;2023-07-28T06:47:31;1.80;;;1.50;;
9563;SDS011;4820;50.870;4.702;2023-07-28T06:49:57;1.63;;;1.52;;
9563;SDS011;4820;50.870;4.702;2023-07-28T06:52:22;2.95;;;1.60;;
9563;SDS011;4820;50.870;4.702;2023-07-28T06:54:48;2.08;;;1.70;;
9563;SDS011;4820;50.870;4.702;2023-07-28T06:57:14;2.78;;;1.83;;
9563;SDS011;4820;50.870;4.702;2023-07-28T06:59:41;3.30;;;1.88;;
9563;SDS011;4820;50.870;4.702;2023-07-28T07:02:06;2.10;;;1.80;;
9563;SDS011;4820;50.870;4.702;2023-07-28T07:04:32;1.85;;;1.70;;
9563;SDS011;4820;50.870;4.702;2023-07-28T07:06:58;1.80;;;1.70;;
9563;SDS011;4820;50.870;4.702;2023-07-28T07:09:23;2.80;;;1.90;;
9563;SDS011;4820;50.870;4.702;2023-07-28T07:11:49;3.05;;;1.88;;
9563;SDS011;4820;50.870;4.702;2023-07-28T07:14:15;2.47;;;1.90;;
9563;SDS011;4820;50.870;4.702;2023-07-28T07:16:41;2.20;;;2.00;;
9563;SDS011;4820;50.870;4.702;2023-07-28T07:19:07;2.08;;;1.60;;
9563;SDS011;4820;50.870;4.702;2023-07-28T07:21:33;1.80;;;1.70;;
9563;SDS011;4820;50.870;4.702;2023-07-28T07:23:59;2.60;;;2.05;;
9563;SDS011;4820;50.870;4.702;2023-07-28T07:26:25;2.38;;;1.83;;
9563;SDS011;4820;50.870;4.702;2023-07-28T07:28:51;2.35;;;1.90;;
9563;SDS011;4820;50.870;4.702;2023-07-28T07:31:16;2.45;;;1.90;;
9563;SDS011;4820;50.870;4.702;2023-07-28T07:33:42;2.25;;;1.88;;
9563;SDS011;4820;50.870;4.702;2023-07-28T07:36:15;3.75;;;2.08;;
9563;SDS011;4820;50.870;4.702;2023-07-28T07:38:42;3.78;;;2.15;;
9563;SDS011;4820;50.870;4.702;2023-07-28T07:41:10;3.30;;;2.08;;
9563;SDS011;4820;50.870;4.702;2023-07-28T07:43:37;2.63;;;2.15;;
9563;SDS011;4820;50.870;4.702;2023-07-28T07:46:04;1.85;;;1.70;;
9563;SDS011;4820;50.870;4.702;2023-07-28T07:48:29;1.85;;;1.60;;
9563;SDS011;4820;50.870;4.702;2023-07-28T07:50:55;1.70;;;1.60;;
9563;SDS011;4820;50.870;4.702;2023-07-28T07:53:21;1.30;;;1.20;;
9563;SDS011;4820;50.870;4.702;2023-07-28T07:55:46;0.75;;;0.75;;
9563;SDS011;4820;50.870;4.702;2023-07-28T07:58:14;1.05;;;0.98;;
9563;SDS011;4820;50.870;4.702;2023-07-28T08:00:39;1.30;;;1.00;;
9563;SDS011;4820;50.870;4.702;2023-07-28T08:03:05;1.02;;;0.93;;
9563;SDS011;4820;50.870;4.702;2023-07-28T08:05:31;1.10;;;1.00;;
9563;SDS011;4820;50.870;4.702;2023-07-28T08:07:56;2.25;;;1.25;;
9563;SDS011;4820;50.870;4.702;2023-07-28T08:10:22;2.05;;;1.17;;
9563;SDS011;4820;50.870;4.702;2023-07-28T08:12:48;3.17;;;1.65;;
9563;SDS011;4820;50.870;4.702;2023-07-28T08:15:14;1.73;;;1.60;;
9563;SDS011;4820;50.870;4.702;2023-07-28T08:17:41;2.80;;;1.98;;
9563;SDS011;4820;50.870;4.702;2023-07-28T08:20:07;2.20;;;2.00;;
9563;SDS011;4820;50.870;4.702;2023-07-28T08:22:33;3.35;;;2.10;;
9563;SDS011;4820;50.870;4.702;2023-07-28T08:24:59;3.90;;;2.30;;
9563;SDS011;4820;50.870;4.702;2023-07-28T08:27:24;4.32;;;2.05;;
9563;SDS011;4820;50.870;4.702;2023-07-28T08:29:50;2.35;;;2.00;;
9563;SDS011;4820;50.870;4.702;2023-07-28T08:32:15;2.53;;;2.00;;
9563;SDS011;4820;50.870;4.702;2023-07-28T08:34:42;2.17;;;1.95;;
9563;SDS011;4820;50.870;4.702;2023-07-28T08:37:07;2.30;;;2.10;;
9563;SDS011;4820;50.870;4.702;2023-07-28T08:39:33;2.97;;;2.28;;
9563;SDS011;4820;50.870;4.702;2023-07-28T08:42:02;2.17;;;1.90;;
9563;SDS011;4820;50.870;4.702;2023-07-28T08:44:30;2.20;;;1.95;;
9563;SDS011;4820;50.870;4.702;2023-07-28T08:46:57;3.20;;;1.80;;
9563;SDS011;4820;50.870;4.702;2023-07-28T08:49:23;2.13;;;1.77;;
9563;SDS011;4820;50.870;4.702;2023-07-28T08:51:49;1.75;;;1.63;;
9563;SDS011;4820;50.870;4.702;2023-07-28T08:54:15;1.80;;;1.70;;
9563;SDS011;4820;50.870;4.702;2023-07-28T08:56:42;2.25;;;1.73;;
9563;SDS011;4820;50.870;4.702;2023-07-28T08:59:09;1.55;;;1.45;;
9563;SDS011;4820;50.870;4.702;2023-07-28T09:01:41;1.65;;;1.55;;
9563;SDS011;4820;50.870;4.702;2023-07-28T09:04:11;2.85;;;1.67;;
9563;SDS011;4820;50.870;4.702;2023-07-28T09:06:37;2.10;;;1.40;;
9563;SDS011;4820;50.870;4.702;2023-07-28T09:09:07;1.38;;;1.27;;
9563;SDS011;4820;50.870;4.702;2023-07-28T09:11:33;1.75;;;1.40;;
9563;SDS011;4820;50.870;4.702;2023-07-28T09:14:08;1.63;;;1.20;;
9563;SDS011;4820;50.870;4.702;2023-07-28T09:16:41;1.30;;;1.20;;
9563;SDS011;4820;50.870;4.702;2023-07-28T09:19:08;1.95;;;1.23;;
9563;SDS011;4820;50.870;4.702;2023-07-28T09:21:35;1.40;;;1.20;;
9563;SDS011;4820;50.870;4.702;2023-07-28T09:24:04;1.98;;;1.27;;
9563;SDS011;4820;50.870;4.702;2023-07-28T09:31:42;2.08;;;1.00;;
9563;SDS011;4820;50.870;4.702;2023-07-28T09:34:09;1.48;;;1.05;;
9563;SDS011;4820;50.870;4.702;2023-07-28T09:36:37;1.77;;;1.30;;
9563;SDS011;4820;50.870;4.702;2023-07-28T09:39:06;1.40;;;1.30;;
9563;SDS011;4820;50.870;4.702;2023-07-28T09:41:35;1.30;;;1.20;;
9563;SDS011;4820;50.870;4.702;2023-07-28T09:44:03;1.50;;;1.40;;
9563;SDS011;4820;50.870;4.702;2023-07-28T09:46:30;2.80;;;1.58;;
9563;SDS011;4820;50.870;4.702;2023-07-28T09:48:59;1.70;;;1.60;;
9563;SDS011;4820;50.870;4.702;2023-07-28T09:51:35;2.00;;;1.70;;
9563;SDS011;4820;50.870;4.702;2023-07-28T09:54:07;2.05;;;1.80;;
9563;SDS011;4820;50.870;4.702;2023-07-28T09:56:37;2.30;;;2.10;;
9563;SDS011;4820;50.870;4.702;2023-07-28T09:59:08;3.15;;;2.47;;
9563;SDS011;4820;50.870;4.702;2023-07-28T10:01:38;2.55;;;2.35;;
9563;SDS011;4820;50.870;4.702;2023-07-28T10:04:04;2.40;;;2.20;;
9563;SDS011;4820;50.870;4.702;2023-07-28T10:06:30;3.17;;;2.88;;
9563;SDS011;4820;50.870;4.702;2023-07-28T10:08:58;3.10;;;2.80;;
9563;SDS011;4820;50.870;4.702;2023-07-28T10:11:24;3.65;;;3.38;;
9563;SDS011;4820;50.870;4.702;2023-07-28T10:13:53;3.30;;;3.10;;
9563;SDS011;4820;50.870;4.702;2023-07-28T10:16:20;3.60;;;3.30;;
9563;SDS011;4820;50.870;4.702;2023-07-28T10:19:04;3.72;;;3.47;;
9563;SDS011;4820;50.870;4.702;2023-07-28T10:21:30;3.55;;;3.30;;
9563;SDS011;4820;50.870;4.702;2023-07-28T10:24:00;3.58;;;2.83;;
9563;SDS011;4820;50.870;4.702;2023-07-28T10:26:35;3.13;;;2.47;;
9563;SDS011;4820;50.870;4.702;2023-07-28T10:29:09;2.60;;;2.05;;
9563;SDS011;4820;50.870;4.702;2023-07-28T10:31:53;3.05;;;2.42;;
9563;SDS011;4820;50.870;4.702;2023-07-28T10:34:21;2.00;;;1.90;;
9563;SDS011;4820;50.870;4.702;2023-07-28T10:36:50;2.10;;;1.90;;
9563;SDS011;4820;50.870;4.702;2023-07-28T10:39:22;2.45;;;1.90;;
9563;SDS011;4820;50.870;4.702;2023-07-28T10:44:29;1.90;;;1.75;;
9563;SDS011;4820;50.870;4.702;2023-07-28T10:46:55;3.38;;;2.00;;
9563;SDS011;4820;50.870;4.702;2023-07-28T10:49:21;2.10;;;1.75;;
9563;SDS011;4820;50.870;4.702;2023-07-28T10:51:49;2.20;;;1.30;;
9563;SDS011;4820;50.870;4.702;2023-07-28T10:54:15;2.10;;;1.50;;
9563;SDS011;4820;50.870;4.702;2023-07-28T10:56:45;1.40;;;1.30;;
9563;SDS011;4820;50.870;4.702;2023-07-28T10:59:14;1.55;;;1.40;;
9563;SDS011;4820;50.870;4.702;2023-07-28T11:01:40;1.60;;;1.50;;
9563;SDS011;4820;50.870;4.702;2023-07-28T11:06:35;1.80;;;1.55;;
9563;SDS011;4820;50.870;4.702;2023-07-28T11:09:02;2.05;;;1.30;;
9563;SDS011;4820;50.870;4.702;2023-07-28T11:11:32;1.55;;;1.23;;
9563;SDS011;4820;50.870;4.702;2023-07-28T11:14:00;1.92;;;1.35;;
9563;SDS011;4820;50.870;4.702;2023-07-28T11:16:26;1.15;;;1.05;;
9563;SDS011;4820;50.870;4.702;2023-07-28T11:18:54;1.30;;;1.20;;
9563;SDS011;4820;50.870;4.702;2023-07-28T11:21:22;2.35;;;1.38;;
9563;SDS011;4820;50.870;4.702;2023-07-28T11:23:49;3.72;;;1.42;;
9563;SDS011;4820;50.870;4.702;2023-07-28T11:26:16;2.15;;;1.50;;
9563;SDS011;4820;50.870;4.702;2023-07-28T11:28:43;1.98;;;1.30;;
9563;SDS011;4820;50.870;4.702;2023-07-28T11:31:10;3.63;;;1.67;;
9563;SDS011;4820;50.870;4.702;2023-07-28T11:33:36;2.00;;;1.80;;
9563;SDS011;4820;50.870;4.702;2023-07-28T11:36:02;1.88;;;1.67;;
9563;SDS011;4820;50.870;4.702;2023-07-28T11:38:28;1.60;;;1.50;;
9563;SDS011;4820;50.870;4.702;2023-07-28T11:40:54;2.67;;;1.80;;
9563;SDS011;4820;50.870;4.702;2023-07-28T11:43:23;2.42;;;1.80;;
9563;SDS011;4820;50.870;4.702;2023-07-28T11:45:49;2.72;;;2.03;;
9563;SDS011;4820;50.870;4.702;2023-07-28T11:48:15;2.30;;;2.10;;
9563;SDS011;4820;50.870;4.702;2023-07-28T11:50:42;2.70;;;2.50;;
9563;SDS011;4820;50.870;4.702;2023-07-28T11:53:10;2.35;;;2.15;;
9563;SDS011;4820;50.870;4.702;2023-07-28T11:55:36;2.70;;;2.50;;
9563;SDS011;4820;50.870;4.702;2023-07-28T11:58:03;3.28;;;3.03;;
9563;SDS011;4820;50.870;4.702;2023-07-28T12:00:31;2.50;;;2.20;;
9563;SDS011;4820;50.870;4.702;2023-07-28T12:03:01;2.13;;;1.92;;
9563;SDS011;4820;50.870;4.702;2023-07-28T12:05:31;2.42;;;2.22;;
9563;SDS011;4820;50.870;4.702;2023-07-28T12:08:01;2.40;;;2.20;;
9563;SDS011;4820;50.870;4.702;2023-07-28T12:10:28;2.70;;;2.30;;
9563;SDS011;4820;50.870;4.702;2023-07-28T12:12:54;3.00;;;1.85;;
9563;SDS011;4820;50.870;4.702;2023-07-28T12:15:26;2.30;;;2.10;;
9563;SDS011;4820;50.870;4.702;2023-07-28T12:23:05;3.05;;;2.65;;
9563;SDS011;4820;50.870;4.702;2023-07-28T12:25:32;2.20;;;2.00;;
9563;SDS011;4820;50.870;4.702;2023-07-28T12:27:58;2.60;;;2.40;;
9563;SDS011;4820;50.870;4.702;2023-07-28T12:30:23;2.10;;;1.90;;
9563;SDS011;4820;50.870;4.702;2023-07-28T12:32:49;2.90;;;2.35;;
9563;SDS011;4820;50.870;4.702;2023-07-28T12:35:15;4.78;;;2.45;;
9563;SDS011;4820;50.870;4.702;2023-07-28T12:37:41;2.35;;;2.15;;
9563;SDS011;4820;50.870;4.702;2023-07-28T12:40:07;2.40;;;2.20;;
9563;SDS011;4820;50.870;4.702;2023-07-28T12:42:33;2.60;;;2.40;;
9563;SDS011;4820;50.870;4.702;2023-07-28T12:44:59;2.65;;;2.40;;
9563;SDS011;4820;50.870;4.702;2023-07-28T12:47:26;2.65;;;2.30;;
9563;SDS011;4820;50.870;4.702;2023-07-28T12:49:52;3.17;;;2.40;;
9563;SDS011;4820;50.870;4.702;2023-07-28T12:52:18;3.33;;;2.25;;
9563;SDS011;4820;50.870;4.702;2023-07-28T12:54:45;2.55;;;2.35;;
9563;SDS011;4820;50.870;4.702;2023-07-28T12:57:10;2.33;;;2.20;;
9563;SDS011;4820;50.870;4.702;2023-07-28T12:59:37;2.30;;;2.10;;
9563;SDS011;4820;50.870;4.702;2023-07-28T13:02:03;2.88;;;1.98;;
9563;SDS011;4820;50.870;4.702;2023-07-28T13:04:29;3.15;;;2.35;;
9563;SDS011;4820;50.870;4.702;2023-07-28T13:06:54;2.20;;;2.00;;
9563;SDS011;4820;50.870;4.702;2023-07-28T13:09:20;3.38;;;1.90;;
9563;SDS011;4820;50.870;4.702;2023-07-28T13:11:46;3.67;;;2.20;;
9563;SDS011;4820;50.870;4.702;2023-07-28T13:14:11;1.95;;;1.73;;
9563;SDS011;4820;50.870;4.702;2023-07-28T13:16:37;2.00;;;1.80;;
9563;SDS011;4820;50.870;4.702;2023-07-28T13:19:03;1.92;;;1.80;;
9563;SDS011;4820;50.870;4.702;2023-07-28T13:21:29;2.10;;;1.90;;
9563;SDS011;4820;50.870;4.702;2023-07-28T13:23:55;2.55;;;1.90;;
9563;SDS011;4820;50.870;4.702;2023-07-28T13:26:21;2.88;;;1.92;;
9563;SDS011;4820;50.870;4.702;2023-07-28T13:28:46;6.07;;;2.25;;
9563;SDS011;4820;50.870;4.702;2023-07-28T13:31:14;2.95;;;1.80;;
9563;SDS011;4820;50.870;4.702;2023-07-28T13:33:42;2.17;;;1.92;;
9563;SDS011;4820;50.870;4.702;2023-07-28T13:36:07;2.05;;;1.88;;
9563;SDS011;4820;50.870;4.702;2023-07-28T13:38:33;1.77;;;1.67;;
9563;SDS011;4820;50.870;4.702;2023-07-28T13:41:03;2.38;;;1.85;;
9563;SDS011;4820;50.870;4.702;2023-07-28T13:43:32;1.60;;;1.50;;
9563;SDS011;4820;50.870;4.702;2023-07-28T13:46:01;2.08;;;1.60;;
9563;SDS011;4820;50.870;4.702;2023-07-28T13:48:27;2.72;;;1.63;;
9563;SDS011;4820;50.870;4.702;2023-07-28T13:50:53;2.95;;;1.80;;
9563;SDS011;4820;50.870;4.702;2023-07-28T13:53:19;2.20;;;1.95;;
9563;SDS011;4820;50.870;4.702;2023-07-28T13:55:44;1.67;;;1.52;;
9563;SDS011;4820;50.870;4.702;2023-07-28T13:58:10;2.38;;;1.65;;
9563;SDS011;4820;50.870;4.702;2023-07-28T14:00:36;1.75;;;1.60;;
9563;SDS011;4820;50.870;4.702;2023-07-28T14:03:02;2.35;;;1.90;;
9563;SDS011;4820;50.870;4.702;2023-07-28T14:05:28;2.90;;;1.80;;
9563;SDS011;4820;50.870;4.702;2023-07-28T14:07:53;2.00;;;1.83;;
9563;SDS011;4820;50.870;4.702;2023-07-28T14:10:19;3.38;;;1.50;;
9563;SDS011;4820;50.870;4.702;2023-07-28T14:12:45;2.00;;;1.73;;
9563;SDS011;4820;50.870;4.702;2023-07-28T14:15:10;1.70;;;1.60;;
9563;SDS011;4820;50.870;4.702;2023-07-28T14:17:36;2.97;;;1.67;;
9563;SDS011;4820;50.870;4.702;2023-07-28T14:20:02;1.80;;;1.70;;
9563;SDS011;4820;50.870;4.702;2023-07-28T14:22:27;2.88;;;1.48;;
9563;SDS011;4820;50.870;4.702;2023-07-28T14:24:53;1.70;;;1.58;;
9563;SDS011;4820;50.870;4.702;2023-07-28T14:27:19;2.15;;;1.80;;
9563;SDS011;4820;50.870;4.702;2023-07-28T14:29:44;2.38;;;1.67;;
9563;SDS011;4820;50.870;4.702;2023-07-28T14:32:10;2.28;;;1.42;;
9563;SDS011;4820;50.870;4.702;2023-07-28T14:34:36;1.52;;;1.42;;
9563;SDS011;4820;50.870;4.702;2023-07-28T14:37:04;2.83;;;1.60;;
9563;SDS011;4820;50.870;4.702;2023-07-28T14:39:33;2.17;;;1.60;;
9563;SDS011;4820;50.870;4.702;2023-07-28T14:41:58;1.98;;;1.58;;
9563;SDS011;4820;50.870;4.702;2023-07-28T14:44:24;1.85;;;1.65;;
9563;SDS011;4820;50.870;4.702;2023-07-28T14:46:50;1.95;;;1.60;;
9563;SDS011;4820;50.870;4.702;2023-07-28T14:49:16;3.78;;;1.70;;
9563;SDS011;4820;50.870;4.702;2023-07-28T14:51:42;1.65;;;1.50;;
9563;SDS011;4820;50.870;4.702;2023-07-28T14:54:08;2.30;;;1.65;;
9563;SDS011;4820;50.870;4.702;2023-07-28T14:56:34;2.35;;;1.65;;
9563;SDS011;4820;50.870;4.702;2023-07-28T14:59:00;2.03;;;1.73;;
9563;SDS011;4820;50.870;4.702;2023-07-28T15:01:28;2.03;;;1.60;;
9563;SDS011;4820;50.870;4.702;2023-07-28T15:03:54;1.88;;;1.77;;
9563;SDS011;4820;50.870;4.702;2023-07-28T15:06:20;2.10;;;1.60;;
9563;SDS011;4820;50.870;4.702;2023-07-28T15:08:46;2.67;;;1.70;;
9563;SDS011;4820;50.870;4.702;2023-07-28T15:11:13;2.70;;;1.55;;
9563;SDS011;4820;50.870;4.702;2023-07-28T15:13:39;1.92;;;1.45;;
9563;SDS011;4820;50.870;4.702;2023-07-28T15:16:05;4.13;;;1.40;;
9563;SDS011;4820;50.870;4.702;2023-07-28T15:18:31;3.20;;;1.60;;
9563;SDS011;4820;50.870;4.702;2023-07-28T15:20:57;2.92;;;1.40;;
9563;SDS011;4820;50.870;4.702;2023-07-28T15:23:25;1.90;;;1.60;;
9563;SDS011;4820;50.870;4.702;2023-07-28T15:25:51;2.53;;;1.50;;
9563;SDS011;4820;50.870;4.702;2023-07-28T15:28:17;2.10;;;1.60;;
9563;SDS011;4820;50.870;4.702;2023-07-28T15:30:44;2.00;;;1.50;;
9563;SDS011;4820;50.870;4.702;2023-07-28T15:33:13;2.15;;;1.70;;
9563;SDS011;4820;50.870;4.702;2023-07-28T15:35:40;1.90;;;1.52;;